Kaseyville, Missouri
Current Conditions -  °F | °C
As of 1:55 PM on Thursday 23 Oct 2014 (Local Time) from KIRK Reporting Station
Scattered Clouds Scattered Clouds  
Wind Chill: 68°   Ceiling: Unl
Heat Index: 68°   Visibility: 10mi
Dew Point: 56°   Wind: 10mph
Humidity: 65%   Direction: 210°SSW
Pressure: 30.07"   Gusts: NA
Location:  39.7424°N, 92.6454°W
Report Text: KIRK 231855Z AUTO 21009KT 10SM SCT038 20/13 A3007 RMK AO2 SLP184 T02000133
Loading
Personal Weather Stations






























Interactive Weather Map
Tropical Storm Tracking
New forecast layout! Learn more

10-Day Weather Forecast

Advertisements
Track Severe Weather on mobile